Time;durP1;ratioP1;P1;durP2;ratioP2;P2;SDS_P1;SDS_P2;PMS_P1;PMS_P2;Temp;Humidity;BMP_temperature;BMP_pressure;BME280_temperature;BME280_humidity;BME280_pressure;Samples;Min_cycle;Max_cycle;Signal;HPM_P1;HPM_P2
2022/09/03 00:02:31;;;;;;;2.70;2.60;;;24.00;33.60;;;;;;6199808;23;20471;-67
2022/09/03 00:05:04;;;;;;;2.80;2.60;;;24.00;33.60;;;;;;6203069;23;20435;-67
2022/09/03 00:07:41;;;;;;;2.77;2.67;;;24.00;33.50;;;;;;6205996;23;20494;-67
2022/09/03 00:10:11;;;;;;;2.37;2.27;;;24.00;33.40;;;;;;6171930;23;20412;-67
2022/09/03 00:12:41;;;;;;;2.50;2.40;;;24.00;33.50;;;;;;6198177;23;20434;-68
2022/09/03 00:15:11;;;;;;;2.40;2.30;;;24.00;33.40;;;;;;6172884;23;20986;-67
2022/09/03 00:17:43;;;;;;;2.57;2.40;;;24.00;33.30;;;;;;6171747;23;20455;-68
2022/09/03 00:20:17;;;;;;;2.53;2.43;;;24.00;33.30;;;;;;6173465;23;20534;-67
2022/09/03 00:22:49;;;;;;;2.40;2.30;;;24.00;33.30;;;;;;6159693;23;20423;-68
2022/09/03 00:25:36;;;;;;;2.47;2.37;;;24.00;33.30;;;;;;6181981;23;20440;-68
2022/09/03 00:28:08;;;;;;;2.17;2.07;;;24.00;33.30;;;;;;6174358;23;20403;-67
2022/09/03 00:30:34;;;;;;;2.60;2.50;;;24.00;33.30;;;;;;6174850;23;20423;-67
2022/09/03 00:33:09;;;;;;;2.87;2.70;;;24.00;33.30;;;;;;6175214;23;20416;-67
2022/09/03 00:35:44;;;;;;;2.30;2.20;;;24.00;33.20;;;;;;6172830;23;20735;-67
2022/09/03 00:38:09;;;;;;;2.40;2.30;;;24.00;33.20;;;;;;6198404;23;20424;-68
2022/09/03 00:41:05;;;;;;;2.17;2.07;;;24.00;33.20;;;;;;6192882;23;20480;-67
2022/09/03 00:43:52;;;;;;;2.30;2.20;;;24.00;33.10;;;;;;6174031;23;20274;-67
2022/09/03 00:46:18;;;;;;;2.40;2.30;;;24.00;33.20;;;;;;6177192;23;20409;-67
2022/09/03 00:49:18;;;;;;;2.30;2.20;;;24.00;33.10;;;;;;6182967;23;20503;-67
2022/09/03 00:51:50;;;;;;;2.10;2.00;;;24.00;33.10;;;;;;6203770;23;20202;-68
2022/09/03 00:54:24;;;;;;;2.40;2.30;;;24.00;33.10;;;;;;6198389;23;20522;-68
2022/09/03 00:57:05;;;;;;;2.37;2.27;;;24.00;33.10;;;;;;6169475;22;20905;-67
2022/09/03 00:59:56;;;;;;;2.57;2.47;;;24.00;33.10;;;;;;6163459;23;20485;-67
2022/09/03 01:02:45;;;;;;;4.90;2.40;;;24.00;33.10;;;;;;6202081;23;20419;-67
2022/09/03 01:05:21;;;;;;;2.20;2.10;;;24.00;33.00;;;;;;6204545;23;20490;-67
2022/09/03 01:08:11;;;;;;;2.20;2.10;;;24.00;33.00;;;;;;6170039;23;20416;-68
2022/09/03 01:11:09;;;;;;;2.10;2.00;;;24.00;33.00;;;;;;6171153;23;20431;-67
2022/09/03 01:13:46;;;;;;;3.13;2.00;;;24.00;33.00;;;;;;6198251;23;20462;-67
2022/09/03 01:16:24;;;;;;;2.37;2.27;;;24.00;33.00;;;;;;6172577;23;20428;-68
2022/09/03 01:19:47;;;;;;;2.03;1.93;;;24.00;33.00;;;;;;6174068;23;20420;-68
2022/09/03 01:22:28;;;;;;;2.20;2.10;;;24.00;32.90;;;;;;6108898;23;20410;-67
2022/09/03 01:25:01;;;;;;;2.50;2.40;;;24.00;33.00;;;;;;6112734;23;20414;-67
2022/09/03 01:27:38;;;;;;;2.40;2.30;;;24.00;33.00;;;;;;6156748;22;20412;-67
2022/09/03 01:30:07;;;;;;;2.63;2.53;;;24.00;32.90;;;;;;6201910;23;20411;-67
2022/09/03 01:32:42;;;;;;;2.07;1.97;;;24.00;32.90;;;;;;6185926;23;20479;-68
2022/09/03 01:35:31;;;;;;;2.17;2.07;;;24.00;32.90;;;;;;6198518;23;20423;-68
2022/09/03 01:38:02;;;;;;;2.60;2.50;;;24.00;32.90;;;;;;6202151;23;20759;-67
2022/09/03 01:40:52;;;;;;;2.43;2.33;;;24.00;32.90;;;;;;6199149;23;20929;-67
2022/09/03 01:43:46;;;;;;;2.20;2.10;;;24.00;32.90;;;;;;6156679;23;20415;-68
2022/09/03 01:46:23;;;;;;;2.43;2.23;;;24.00;32.80;;;;;;6169380;23;20411;-68
2022/09/03 01:49:13;;;;;;;2.10;2.00;;;24.00;32.80;;;;;;6163185;23;20811;-67
2022/09/03 01:51:40;;;;;;;1.90;1.80;;;24.00;32.90;;;;;;6204446;23;20418;-68
2022/09/03 01:54:24;;;;;;;2.47;2.27;;;24.00;32.80;;;;;;6173714;23;20489;-67
2022/09/03 01:57:10;;;;;;;2.10;2.00;;;24.00;32.80;;;;;;6185574;23;20871;-68
2022/09/03 02:00:08;;;;;;;2.00;1.90;;;24.00;32.80;;;;;;6192095;23;20423;-67
2022/09/03 02:02:34;;;;;;;2.00;1.90;;;24.00;32.80;;;;;;6181761;23;20411;-67
2022/09/03 02:05:11;;;;;;;2.20;2.10;;;23.90;32.70;;;;;;6192666;23;20490;-67
2022/09/03 02:08:02;;;;;;;2.00;1.90;;;23.90;32.60;;;;;;6203335;23;20450;-67
2022/09/03 02:10:41;;;;;;;1.97;1.87;;;23.90;32.60;;;;;;6167583;23;20420;-67
2022/09/03 02:13:12;;;;;;;2.10;2.00;;;23.90;32.60;;;;;;6190155;23;20831;-68
2022/09/03 02:15:44;;;;;;;1.97;1.87;;;23.90;32.60;;;;;;6173437;23;20427;-67
2022/09/03 02:18:25;;;;;;;1.90;1.80;;;24.00;32.70;;;;;;6173153;23;20452;-67
2022/09/03 02:20:53;;;;;;;1.90;1.80;;;23.90;32.50;;;;;;6174572;23;20503;-68
2022/09/03 02:23:19;;;;;;;1.70;1.60;;;23.90;32.50;;;;;;6178914;23;20413;-67
2022/09/03 02:25:56;;;;;;;2.00;1.90;;;23.90;32.50;;;;;;6176363;23;20432;-68
2022/09/03 02:28:22;;;;;;;2.00;1.90;;;23.90;32.40;;;;;;6176426;23;20253;-67
2022/09/03 02:30:48;;;;;;;1.90;1.80;;;23.90;32.40;;;;;;6164726;23;20431;-67
2022/09/03 02:33:14;;;;;;;1.80;1.70;;;23.90;32.40;;;;;;6208087;23;20415;-67
2022/09/03 02:35:41;;;;;;;1.80;1.70;;;23.90;32.40;;;;;;6206986;23;20202;-67
2022/09/03 02:38:19;;;;;;;2.27;2.13;;;23.90;32.40;;;;;;6192749;23;20880;-68
2022/09/03 02:40:45;;;;;;;2.03;1.93;;;23.90;32.40;;;;;;6199605;23;20411;-68
2022/09/03 02:43:17;;;;;;;1.90;1.80;;;23.90;32.30;;;;;;6207488;23;20423;-67
2022/09/03 02:45:47;;;;;;;1.80;1.70;;;23.90;32.30;;;;;;6178337;23;20274;-68
2022/09/03 02:48:17;;;;;;;1.87;1.77;;;23.90;32.20;;;;;;6171529;23;20864;-68
2022/09/03 02:50:43;;;;;;;1.80;1.70;;;23.90;32.30;;;;;;6207671;23;20426;-68
2022/09/03 02:53:09;;;;;;;1.87;1.77;;;23.90;32.30;;;;;;6204441;23;20412;-67
2022/09/03 02:55:34;;;;;;;1.73;1.63;;;23.90;32.20;;;;;;6207367;23;20204;-68
2022/09/03 02:58:00;;;;;;;2.00;1.90;;;23.90;32.20;;;;;;6207756;23;20202;-67
2022/09/03 03:00:27;;;;;;;1.77;1.67;;;23.90;32.20;;;;;;6204750;23;20494;-67
2022/09/03 03:02:54;;;;;;;1.87;1.77;;;23.90;32.20;;;;;;6202614;23;20189;-67
2022/09/03 03:05:50;;;;;;;1.77;1.67;;;23.90;32.10;;;;;;6191291;23;20953;-67
2022/09/03 03:08:20;;;;;;;1.90;1.80;;;23.90;32.10;;;;;;6197988;23;20417;-67
2022/09/03 03:10:48;;;;;;;2.13;2.03;;;23.90;32.10;;;;;;6156585;23;21222;-67
2022/09/03 03:13:15;;;;;;;1.93;1.83;;;23.90;32.10;;;;;;6205950;23;20798;-68
2022/09/03 03:15:41;;;;;;;2.03;1.93;;;23.90;32.10;;;;;;6183996;23;20540;-67
2022/09/03 03:18:06;;;;;;;2.20;2.10;;;23.90;32.10;;;;;;6203574;23;20423;-67
2022/09/03 03:20:33;;;;;;;1.80;1.70;;;23.90;32.10;;;;;;6187495;23;20416;-68
2022/09/03 03:23:03;;;;;;;1.90;1.80;;;23.90;32.10;;;;;;6194909;23;20261;-68
2022/09/03 03:25:34;;;;;;;1.90;1.80;;;23.90;32.10;;;;;;6196669;23;20905;-67
2022/09/03 03:28:00;;;;;;;1.63;1.53;;;23.90;32.10;;;;;;6203080;23;20424;-67
2022/09/03 03:30:26;;;;;;;1.93;1.83;;;23.90;32.00;;;;;;6206393;23;20414;-67
2022/09/03 03:32:53;;;;;;;1.70;1.60;;;23.90;32.00;;;;;;6206350;23;20549;-67
2022/09/03 03:35:19;;;;;;;1.70;1.60;;;23.90;32.00;;;;;;6206933;23;20431;-68
2022/09/03 03:37:44;;;;;;;1.87;1.77;;;23.90;32.80;;;;;;6206219;23;20423;-68
2022/09/03 03:40:11;;;;;;;2.10;2.00;;;23.90;32.00;;;;;;6208612;23;20422;-67
2022/09/03 03:42:36;;;;;;;1.97;1.87;;;23.90;32.00;;;;;;6204978;23;20201;-67
2022/09/03 03:45:03;;;;;;;1.70;1.60;;;23.90;32.00;;;;;;6204784;23;20423;-67
2022/09/03 03:47:32;;;;;;;1.90;1.80;;;23.90;32.00;;;;;;6204954;23;20655;-68
2022/09/03 03:49:58;;;;;;;1.83;1.73;;;23.90;31.90;;;;;;6204373;23;20420;-67
2022/09/03 03:52:24;;;;;;;1.70;1.60;;;23.90;32.00;;;;;;6161611;22;20755;-68
2022/09/03 03:54:50;;;;;;;2.20;2.10;;;23.90;31.90;;;;;;6196729;23;20233;-68
2022/09/03 03:57:18;;;;;;;2.07;1.97;;;23.90;32.00;;;;;;6205772;23;20412;-68
2022/09/03 03:59:44;;;;;;;1.50;1.40;;;23.90;31.90;;;;;;6205455;23;20416;-67
2022/09/03 04:02:09;;;;;;;1.80;1.70;;;23.90;32.00;;;;;;6206977;23;20419;-67
2022/09/03 04:04:35;;;;;;;1.87;1.77;;;23.90;31.90;;;;;;6205166;23;20201;-67
2022/09/03 04:07:01;;;;;;;1.80;1.70;;;23.90;31.90;;;;;;6203963;23;20288;-67
2022/09/03 04:09:26;;;;;;;1.80;1.70;;;23.90;31.90;;;;;;6205861;23;20586;-67
2022/09/03 04:11:52;;;;;;;2.80;2.60;;;23.90;32.70;;;;;;6205849;23;20224;-68
2022/09/03 04:14:17;;;;;;;2.00;1.90;;;23.90;31.90;;;;;;6205441;23;20202;-68
2022/09/03 04:16:45;;;;;;;2.00;1.90;;;23.90;31.90;;;;;;6205269;23;20194;-68
2022/09/03 04:19:12;;;;;;;1.97;1.87;;;23.90;31.80;;;;;;6208448;23;20977;-68
2022/09/03 04:21:38;;;;;;;1.90;1.80;;;23.90;31.90;;;;;;6175058;23;20795;-67
2022/09/03 04:24:04;;;;;;;1.80;1.70;;;23.90;31.80;;;;;;6172697;23;20895;-67
2022/09/03 04:26:31;;;;;;;1.80;1.70;;;23.90;31.80;;;;;;6173403;23;20503;-68
2022/09/03 04:29:02;;;;;;;1.80;1.70;;;23.90;31.80;;;;;;6176094;23;20416;-68
2022/09/03 04:31:28;;;;;;;1.93;1.83;;;23.90;31.80;;;;;;6148660;23;20503;-68
2022/09/03 04:33:54;;;;;;;2.10;2.00;;;23.90;31.80;;;;;;6196766;23;20796;-68
2022/09/03 04:36:22;;;;;;;2.10;2.00;;;23.90;31.80;;;;;;6205558;23;20240;-68
2022/09/03 04:38:51;;;;;;;1.93;1.83;;;23.90;31.70;;;;;;6207637;23;20202;-68
2022/09/03 04:41:25;;;;;;;1.80;1.70;;;23.90;31.80;;;;;;6204234;23;20420;-68
2022/09/03 04:43:52;;;;;;;1.80;1.70;;;23.90;31.80;;;;;;6207226;23;20454;-67
2022/09/03 04:46:19;;;;;;;2.00;1.90;;;23.90;31.70;;;;;;6169380;22;20974;-68
2022/09/03 04:48:49;;;;;;;1.97;1.87;;;23.90;31.80;;;;;;6180966;23;20926;-68
2022/09/03 04:51:17;;;;;;;2.00;1.90;;;23.90;31.70;;;;;;6186975;23;20412;-68
2022/09/03 04:53:45;;;;;;;1.90;1.80;;;23.90;31.80;;;;;;6174754;23;20754;-68
2022/09/03 04:56:14;;;;;;;1.90;1.80;;;23.90;31.70;;;;;;6176003;23;20456;-67
2022/09/03 04:58:43;;;;;;;2.10;2.00;;;23.90;31.80;;;;;;6205389;23;20494;-67
2022/09/03 05:01:10;;;;;;;1.90;1.80;;;23.90;31.80;;;;;;6191033;23;20422;-68
2022/09/03 05:03:36;;;;;;;1.70;1.60;;;23.90;31.70;;;;;;6160043;23;20413;-68
2022/09/03 05:06:02;;;;;;;1.90;1.80;;;23.90;31.80;;;;;;6163545;23;20582;-68
2022/09/03 05:08:27;;;;;;;2.00;1.90;;;23.90;31.70;;;;;;6201708;23;20190;-68
2022/09/03 05:11:00;;;;;;;1.90;1.80;;;23.90;31.70;;;;;;6202934;23;20213;-68
2022/09/03 05:13:27;;;;;;;1.80;1.70;;;23.90;31.70;;;;;;6205653;23;20718;-68
2022/09/03 05:15:57;;;;;;;1.70;1.60;;;23.90;31.70;;;;;;6205445;23;20774;-67
2022/09/03 05:18:23;;;;;;;2.13;2.03;;;23.90;31.70;;;;;;6203277;23;20431;-68
2022/09/03 05:21:00;;;;;;;1.93;1.83;;;23.90;31.70;;;;;;6206560;23;20419;-68
2022/09/03 05:23:27;;;;;;;1.77;1.67;;;23.90;31.60;;;;;;6191265;23;20212;-68
2022/09/03 05:25:58;;;;;;;1.80;1.70;;;23.90;31.70;;;;;;6206045;23;20424;-68
2022/09/03 05:28:26;;;;;;;2.00;1.90;;;23.90;31.70;;;;;;6204398;23;20424;-68
2022/09/03 05:31:03;;;;;;;1.70;1.60;;;24.00;31.80;;;;;;6203138;23;20423;-68
2022/09/03 05:33:32;;;;;;;1.90;1.80;;;24.00;31.80;;;;;;6200414;23;20424;-68
2022/09/03 05:36:06;;;;;;;1.90;1.80;;;23.90;31.70;;;;;;6205090;23;20432;-68
2022/09/03 05:38:32;;;;;;;2.00;1.90;;;24.00;31.70;;;;;;6203702;23;20427;-68
2022/09/03 05:41:06;;;;;;;2.00;1.90;;;24.00;31.80;;;;;;6203088;23;20420;-69
2022/09/03 05:43:32;;;;;;;1.80;1.70;;;24.00;31.70;;;;;;6201693;23;20432;-68
2022/09/03 05:46:12;;;;;;;1.80;1.70;;;24.00;31.70;;;;;;6197967;23;20423;-68
2022/09/03 05:48:39;;;;;;;1.70;1.60;;;24.00;31.70;;;;;;6175791;23;20924;-67
2022/09/03 05:51:16;;;;;;;1.73;1.63;;;24.00;31.70;;;;;;6173517;23;20969;-68
2022/09/03 05:53:43;;;;;;;2.00;1.90;;;24.00;31.70;;;;;;6203451;23;20411;-69
2022/09/03 05:56:20;;;;;;;1.90;1.80;;;24.00;31.60;;;;;;6199330;23;20493;-68
2022/09/03 05:58:47;;;;;;;1.90;1.80;;;24.00;31.50;;;;;;6203192;23;20425;-68
2022/09/03 06:01:20;;;;;;;1.80;1.70;;;24.00;31.50;;;;;;6205620;23;20416;-68
2022/09/03 06:03:52;;;;;;;1.80;1.70;;;24.00;31.60;;;;;;6203623;23;20519;-69
2022/09/03 06:06:26;;;;;;;2.00;1.90;;;24.00;31.60;;;;;;6156776;22;20437;-69
2022/09/03 06:08:59;;;;;;;1.80;1.70;;;24.00;31.50;;;;;;6154665;23;20411;-68
2022/09/03 06:11:28;;;;;;;3.00;1.67;;;24.00;31.50;;;;;;6173637;23;20439;-68
2022/09/03 06:13:55;;;;;;;1.63;1.53;;;24.00;31.50;;;;;;6130093;23;20914;-69
2022/09/03 06:16:21;;;;;;;1.70;1.60;;;24.00;31.50;;;;;;6172104;23;20459;-69
2022/09/03 06:18:48;;;;;;;1.70;1.60;;;24.00;31.50;;;;;;6174836;23;20427;-69
2022/09/03 06:21:14;;;;;;;1.87;1.77;;;24.00;31.50;;;;;;6159188;23;20486;-68
2022/09/03 06:23:40;;;;;;;1.90;1.80;;;24.00;31.50;;;;;;6201900;23;20419;-69
2022/09/03 06:26:13;;;;;;;2.57;1.80;;;24.00;31.60;;;;;;6206178;23;20742;-68
2022/09/03 06:28:42;;;;;;;1.73;1.63;;;24.00;31.50;;;;;;6199211;23;20477;-69
2022/09/03 06:31:10;;;;;;;1.63;1.53;;;24.00;31.50;;;;;;6206969;23;20430;-69
2022/09/03 06:33:37;;;;;;;1.70;1.60;;;24.00;31.60;;;;;;6178160;23;20809;-69
2022/09/03 06:36:05;;;;;;;1.70;1.60;;;24.00;31.60;;;;;;6206996;23;20523;-69
2022/09/03 06:38:34;;;;;;;1.97;1.87;;;24.00;31.60;;;;;;6175846;23;20419;-68
2022/09/03 06:41:02;;;;;;;1.40;1.30;;;24.00;31.60;;;;;;6204313;23;20593;-68
2022/09/03 06:43:30;;;;;;;1.83;1.73;;;24.00;31.60;;;;;;6181017;23;20423;-68
2022/09/03 06:45:57;;;;;;;1.90;1.80;;;24.00;31.50;;;;;;6175919;23;20503;-67
2022/09/03 06:48:23;;;;;;;1.63;1.53;;;24.00;31.60;;;;;;6175117;23;20884;-67
2022/09/03 06:50:54;;;;;;;1.70;1.60;;;24.00;31.70;;;;;;6174302;23;20432;-68
2022/09/03 06:53:22;;;;;;;1.80;1.70;;;24.00;31.60;;;;;;6154984;23;20891;-68
2022/09/03 06:56:03;;;;;;;1.80;1.70;;;24.00;31.60;;;;;;6177345;23;20431;-68
2022/09/03 06:58:46;;;;;;;1.70;1.60;;;24.00;31.60;;;;;;6148151;23;20420;-68
2022/09/03 07:01:13;;;;;;;1.60;1.50;;;24.00;31.70;;;;;;6182439;23;20426;-68
2022/09/03 07:03:40;;;;;;;1.83;1.73;;;24.00;31.70;;;;;;6204575;23;20494;-68
2022/09/03 07:06:09;;;;;;;1.93;1.73;;;24.00;31.70;;;;;;6175559;23;20461;-68
2022/09/03 07:08:35;;;;;;;1.87;1.77;;;24.00;31.80;;;;;;6202955;23;20412;-69
2022/09/03 07:11:04;;;;;;;1.70;1.60;;;24.00;31.70;;;;;;6208202;23;20439;-68
2022/09/03 07:13:31;;;;;;;1.70;1.60;;;24.00;31.80;;;;;;6191871;23;20750;-68
2022/09/03 07:16:01;;;;;;;1.70;1.60;;;24.00;31.80;;;;;;6164757;23;20423;-68
2022/09/03 07:18:26;;;;;;;1.80;1.70;;;24.00;31.80;;;;;;6172334;22;20482;-68
2022/09/03 07:20:57;;;;;;;1.80;1.70;;;24.00;32.00;;;;;;6203590;23;20423;-69
2022/09/03 07:23:23;;;;;;;1.90;1.80;;;24.00;31.90;;;;;;6205071;23;20249;-68
2022/09/03 07:25:54;;;;;;;1.80;1.70;;;24.00;31.90;;;;;;6206299;23;20809;-68
2022/09/03 07:28:19;;;;;;;1.50;1.40;;;24.00;31.90;;;;;;6204216;23;20345;-69
2022/09/03 07:30:45;;;;;;;1.70;1.60;;;24.00;32.00;;;;;;6201195;23;20495;-68
2022/09/03 07:33:10;;;;;;;1.83;1.73;;;24.00;32.00;;;;;;6204989;23;20232;-68
2022/09/03 07:35:36;;;;;;;1.80;1.70;;;24.00;31.90;;;;;;6204291;23;20210;-68
2022/09/03 07:38:01;;;;;;;1.90;1.80;;;24.00;31.90;;;;;;6206041;23;20233;-68
2022/09/03 07:40:28;;;;;;;1.77;1.67;;;24.00;32.00;;;;;;6201225;23;20668;-68
2022/09/03 07:43:00;;;;;;;2.10;2.00;;;24.00;32.00;;;;;;6200872;23;22638;-68
2022/09/03 07:45:28;;;;;;;1.80;1.70;;;24.00;31.90;;;;;;6152706;23;21090;-68
2022/09/03 07:47:53;;;;;;;1.80;1.70;;;24.00;32.00;;;;;;6193011;23;20411;-68
2022/09/03 07:50:19;;;;;;;2.07;1.80;;;24.00;31.90;;;;;;6165907;23;20440;-68
2022/09/03 07:52:46;;;;;;;1.87;1.70;;;24.00;32.00;;;;;;6142792;23;20199;-68
2022/09/03 07:55:12;;;;;;;1.70;1.60;;;24.00;32.00;;;;;;6199371;23;20557;-68
2022/09/03 07:57:38;;;;;;;1.80;1.70;;;24.10;32.20;;;;;;6204390;23;20887;-68
2022/09/03 08:00:07;;;;;;;1.97;1.87;;;24.00;32.10;;;;;;6191732;23;21149;-67
2022/09/03 08:02:33;;;;;;;2.00;1.90;;;24.00;32.10;;;;;;6205724;23;20947;-68
2022/09/03 08:04:59;;;;;;;1.93;1.83;;;24.10;32.30;;;;;;6205520;23;20477;-68
2022/09/03 08:07:24;;;;;;;2.00;1.90;;;24.00;32.20;;;;;;6201382;23;20300;-68
2022/09/03 08:09:50;;;;;;;2.40;2.30;;;24.10;32.30;;;;;;6201148;23;20793;-69
2022/09/03 08:12:15;;;;;;;2.10;2.00;;;24.10;33.10;;;;;;6199644;23;20715;-68
2022/09/03 08:14:41;;;;;;;1.80;1.70;;;24.10;32.40;;;;;;6196381;23;20676;-68
2022/09/03 08:17:07;;;;;;;2.40;2.20;;;24.10;32.50;;;;;;6173694;23;20553;-69
2022/09/03 08:19:33;;;;;;;2.07;1.97;;;24.10;32.50;;;;;;6202723;23;20212;-68
2022/09/03 08:21:59;;;;;;;1.97;1.87;;;24.10;32.50;;;;;;6201233;23;20272;-68
2022/09/03 08:24:25;;;;;;;2.07;1.97;;;24.10;32.50;;;;;;6199848;23;20412;-68
2022/09/03 08:26:51;;;;;;;2.63;2.00;;;24.10;32.50;;;;;;6198372;23;20423;-69
2022/09/03 08:29:18;;;;;;;2.27;2.17;;;24.10;32.60;;;;;;6200719;23;20811;-69
2022/09/03 08:31:43;;;;;;;1.70;1.60;;;24.00;32.50;;;;;;6202039;23;20403;-69
2022/09/03 08:34:10;;;;;;;2.27;2.17;;;24.10;32.50;;;;;;6159104;23;20947;-69
2022/09/03 08:36:40;;;;;;;2.00;1.90;;;24.10;32.50;;;;;;6154555;23;20611;-69
2022/09/03 08:39:08;;;;;;;1.60;1.50;;;24.00;32.30;;;;;;6174187;22;20886;-68
2022/09/03 08:41:47;;;;;;;1.97;1.87;;;24.00;32.30;;;;;;6154512;23;20404;-69
2022/09/03 08:44:45;;;;;;;2.00;1.90;;;24.10;32.40;;;;;;6203342;23;20400;-69
2022/09/03 08:47:21;;;;;;;1.90;1.80;;;24.00;32.30;;;;;;6197308;23;20759;-68
2022/09/03 08:49:54;;;;;;;2.23;1.70;;;24.00;32.40;;;;;;6192219;23;20417;-69
2022/09/03 08:52:57;;;;;;;1.80;1.70;;;24.00;33.10;;;;;;6172642;23;20412;-68
2022/09/03 08:55:25;;;;;;;1.90;1.80;;;24.00;32.30;;;;;;6138948;23;20439;-71
2022/09/03 08:58:02;;;;;;;2.50;2.03;;;24.00;32.30;;;;;;6201425;23;20443;-68
2022/09/03 09:00:40;;;;;;;1.80;1.70;;;24.00;32.40;;;;;;6201237;23;20953;-69
2022/09/03 09:03:21;;;;;;;2.10;2.00;;;24.00;32.30;;;;;;6199785;23;20419;-68
2022/09/03 09:05:58;;;;;;;1.80;1.70;;;24.00;32.30;;;;;;6201005;23;20485;-68
2022/09/03 09:08:24;;;;;;;2.03;1.93;;;24.00;32.40;;;;;;6201722;23;20415;-68
2022/09/03 09:11:19;;;;;;;1.97;1.87;;;24.00;32.40;;;;;;6174738;23;20486;-68
2022/09/03 09:13:55;;;;;;;1.97;1.87;;;24.00;32.50;;;;;;6195767;23;20260;-68
2022/09/03 09:16:41;;;;;;;2.20;1.80;;;24.10;32.60;;;;;;6203507;23;20503;-69
2022/09/03 09:19:22;;;;;;;2.23;2.10;;;24.00;32.50;;;;;;6201394;23;20799;-68
2022/09/03 09:21:54;;;;;;;2.10;2.00;;;24.00;32.60;;;;;;6201019;23;20420;-69
2022/09/03 09:24:25;;;;;;;1.90;1.80;;;24.00;32.70;;;;;;6199930;23;20887;-69
2022/09/03 09:26:58;;;;;;;2.50;2.30;;;24.00;32.70;;;;;;6169238;22;20423;-69
2022/09/03 09:29:31;;;;;;;2.67;2.40;;;24.00;32.80;;;;;;6166195;23;20413;-69
2022/09/03 09:31:57;;;;;;;2.30;2.20;;;24.00;32.90;;;;;;6167663;23;20419;-69
2022/09/03 09:34:22;;;;;;;2.50;2.40;;;24.00;32.90;;;;;;6171343;23;21048;-69
2022/09/03 09:36:51;;;;;;;2.30;2.20;;;24.00;33.00;;;;;;6171974;23;20224;-69
2022/09/03 09:39:17;;;;;;;2.33;2.23;;;24.00;33.10;;;;;;6172433;23;20579;-69
2022/09/03 09:42:15;;;;;;;2.67;2.57;;;24.00;33.10;;;;;;6172716;23;20412;-69
2022/09/03 09:44:42;;;;;;;1.80;1.70;;;24.00;33.20;;;;;;6147039;23;20413;-71
2022/09/03 09:47:19;;;;;;;2.20;2.00;;;24.00;33.10;;;;;;6193834;23;20501;-71
2022/09/03 09:49:45;;;;;;;11.23;2.13;;;24.10;33.00;;;;;;6174679;23;20998;-70
2022/09/03 09:52:14;;;;;;;2.27;2.17;;;24.10;32.80;;;;;;6195903;23;20423;-68
2022/09/03 09:54:41;;;;;;;3.03;2.93;;;24.10;32.80;;;;;;6200095;23;20280;-68
2022/09/03 09:57:17;;;;;;;1.67;1.57;;;24.10;32.90;;;;;;6201657;23;20499;-68
2022/09/03 09:59:43;;;;;;;1.80;1.70;;;24.10;32.80;;;;;;6198480;23;20416;-68
2022/09/03 10:02:13;;;;;;;2.13;1.80;;;24.10;32.70;;;;;;6200945;23;20421;-67
2022/09/03 10:04:39;;;;;;;1.93;1.83;;;24.10;32.60;;;;;;6201861;23;20918;-67
2022/09/03 10:07:22;;;;;;;2.00;1.90;;;24.10;32.80;;;;;;6200496;23;20415;-68
2022/09/03 10:10:06;;;;;;;2.60;2.27;;;24.10;32.80;;;;;;6203591;23;20728;-68
2022/09/03 10:12:40;;;;;;;2.33;2.23;;;24.10;33.00;;;;;;6190705;23;20439;-68
2022/09/03 10:15:18;;;;;;;2.40;2.30;;;24.10;33.20;;;;;;6175450;23;20450;-68
2022/09/03 10:17:56;;;;;;;2.93;2.83;;;24.10;33.20;;;;;;6171241;23;20444;-68
2022/09/03 10:20:43;;;;;;;2.87;2.77;;;24.10;33.30;;;;;;6142722;23;20420;-68
2022/09/03 10:23:16;;;;;;;2.57;2.47;;;24.10;33.50;;;;;;6200362;23;20408;-68
2022/09/03 10:26:08;;;;;;;2.67;2.57;;;24.10;33.60;;;;;;6202420;23;20424;-68
2022/09/03 10:28:40;;;;;;;2.63;2.43;;;24.10;33.60;;;;;;6170285;23;20514;-68
2022/09/03 10:31:32;;;;;;;2.47;2.37;;;24.10;33.70;;;;;;6170400;23;20428;-68
2022/09/03 10:34:22;;;;;;;2.90;2.70;;;24.10;33.80;;;;;;6202482;23;20483;-67
2022/09/03 10:37:14;;;;;;;3.27;2.90;;;24.10;33.80;;;;;;6202897;23;20478;-68
2022/09/03 10:39:51;;;;;;;2.53;2.43;;;24.00;33.80;;;;;;6194795;23;20973;-68
2022/09/03 10:42:41;;;;;;;2.53;2.43;;;24.00;34.00;;;;;;6174320;23;20442;-67
2022/09/03 10:45:27;;;;;;;2.50;2.40;;;24.10;34.00;;;;;;6197709;23;20425;-68
2022/09/03 10:48:07;;;;;;;2.73;2.63;;;24.10;34.10;;;;;;6202103;23;20412;-68
2022/09/03 10:50:51;;;;;;;2.63;2.50;;;24.00;34.00;;;;;;6179050;23;20439;-68
2022/09/03 10:53:41;;;;;;;2.50;2.40;;;24.00;34.10;;;;;;6174865;22;20466;-68
2022/09/03 10:56:13;;;;;;;2.77;2.67;;;24.00;34.10;;;;;;6188330;23;20471;-68
2022/09/03 10:58:58;;;;;;;2.90;2.80;;;24.00;34.20;;;;;;6202204;23;20416;-68
2022/09/03 11:01:38;;;;;;;2.80;2.70;;;24.10;34.30;;;;;;6201858;23;20510;-67
2022/09/03 11:04:19;;;;;;;2.80;2.70;;;24.10;34.40;;;;;;6165512;23;20408;-68
2022/09/03 11:07:01;;;;;;;2.93;2.83;;;24.10;34.50;;;;;;6169435;23;20919;-68
2022/09/03 11:09:38;;;;;;;2.93;2.83;;;24.10;34.50;;;;;;6160556;23;20416;-68
2022/09/03 11:12:20;;;;;;;4.60;3.50;;;24.00;34.60;;;;;;6185603;23;20431;-68
2022/09/03 11:14:53;;;;;;;2.90;2.80;;;24.00;34.50;;;;;;6173398;23;20631;-68
2022/09/03 11:17:41;;;;;;;2.70;2.60;;;24.00;34.60;;;;;;6170837;23;20936;-68
2022/09/03 11:20:25;;;;;;;2.80;2.70;;;24.00;34.50;;;;;;6196369;23;20421;-68
2022/09/03 11:22:56;;;;;;;2.90;2.80;;;24.10;34.70;;;;;;6200788;23;20692;-68
2022/09/03 11:25:29;;;;;;;2.90;2.80;;;24.00;35.30;;;;;;6202080;23;20426;-68
2022/09/03 11:28:22;;;;;;;3.30;3.20;;;24.00;34.60;;;;;;6170910;23;20427;-68
2022/09/03 11:31:12;;;;;;;2.97;2.87;;;24.00;34.60;;;;;;6196137;23;20416;-68
2022/09/03 11:33:44;;;;;;;3.10;3.00;;;24.10;34.80;;;;;;6197289;23;20419;-68
2022/09/03 11:36:10;;;;;;;3.57;3.47;;;24.00;34.70;;;;;;6157444;22;20420;-68
2022/09/03 11:38:38;;;;;;;3.50;3.30;;;24.10;34.80;;;;;;6172082;23;20419;-68
2022/09/03 11:41:25;;;;;;;3.60;3.40;;;24.10;34.90;;;;;;6174897;23;20899;-68
2022/09/03 11:43:50;;;;;;;2.60;2.40;;;24.10;34.90;;;;;;6195460;23;20419;-68
2022/09/03 11:46:22;;;;;;;4.37;2.57;;;24.10;34.90;;;;;;6155965;23;20424;-68
2022/09/03 11:49:10;;;;;;;3.13;2.93;;;24.00;34.80;;;;;;6200655;23;20635;-68
2022/09/03 11:51:40;;;;;;;3.70;2.90;;;24.10;34.90;;;;;;6190608;23;20422;-68
2022/09/03 11:54:25;;;;;;;2.63;2.53;;;24.10;34.90;;;;;;6165791;23;21180;-68
2022/09/03 11:57:10;;;;;;;2.80;2.70;;;24.10;34.80;;;;;;6203280;23;20946;-68
2022/09/03 11:59:36;;;;;;;3.10;3.00;;;24.10;34.90;;;;;;6167341;23;20407;-68
2022/09/03 12:02:29;;;;;;;3.00;2.80;;;24.10;34.90;;;;;;6206107;23;21062;-68
2022/09/03 12:05:14;;;;;;;2.77;2.60;;;24.10;34.90;;;;;;6191284;23;20891;-69
2022/09/03 12:08:07;;;;;;;2.30;2.20;;;24.10;34.90;;;;;;6194492;23;20408;-68
2022/09/03 12:10:57;;;;;;;2.77;2.67;;;24.10;34.90;;;;;;6204610;23;20485;-68
2022/09/03 12:13:47;;;;;;;2.90;2.80;;;24.10;35.00;;;;;;6167712;23;20434;-68
2022/09/03 12:16:13;;;;;;;2.73;2.53;;;24.10;35.00;;;;;;6192186;23;20436;-69
2022/09/03 12:18:41;;;;;;;2.93;2.73;;;24.10;35.00;;;;;;6153251;23;20507;-69
2022/09/03 12:21:09;;;;;;;2.90;2.80;;;24.10;35.00;;;;;;6204279;23;20641;-68
2022/09/03 12:23:45;;;;;;;3.07;2.87;;;24.10;35.00;;;;;;6200903;23;20736;-69
2022/09/03 12:26:16;;;;;;;2.90;2.80;;;24.10;35.00;;;;;;6205362;23;20418;-69
2022/09/03 12:28:46;;;;;;;3.27;3.10;;;24.10;35.10;;;;;;6202373;23;20458;-69
2022/09/03 12:31:21;;;;;;;3.43;3.23;;;24.10;35.10;;;;;;6181890;23;20915;-68
2022/09/03 12:33:54;;;;;;;3.20;3.10;;;24.10;35.10;;;;;;6189651;23;20507;-68
2022/09/03 12:36:22;;;;;;;3.07;2.90;;;24.10;35.10;;;;;;6201579;23;20455;-68
2022/09/03 12:38:48;;;;;;;2.83;2.73;;;24.10;35.10;;;;;;6201526;23;20447;-69
2022/09/03 12:41:27;;;;;;;2.97;2.87;;;24.10;35.20;;;;;;6197950;23;20721;-68
2022/09/03 12:43:55;;;;;;;3.43;3.23;;;24.10;35.20;;;;;;6168562;23;20420;-68
2022/09/03 12:46:24;;;;;;;3.47;3.27;;;24.10;35.20;;;;;;6201700;23;20411;-67
2022/09/03 12:49:06;;;;;;;3.60;3.40;;;24.10;35.20;;;;;;6160810;23;20415;-70
2022/09/03 12:51:38;;;;;;;33.97;4.83;;;24.20;35.30;;;;;;6190060;23;20888;-67
2022/09/03 12:54:08;;;;;;;10.97;3.97;;;24.20;35.40;;;;;;6178084;23;20470;-66
2022/09/03 12:56:35;;;;;;;54.63;8.80;;;24.20;35.50;;;;;;6190358;23;20499;-66
2022/09/03 12:59:13;;;;;;;98.40;18.53;;;24.20;35.50;;;;;;6151285;23;20575;-66
2022/09/03 13:01:52;;;;;;;126.40;26.67;;;24.20;35.50;;;;;;6199598;23;20854;-66
2022/09/03 13:04:34;;;;;;;156.60;31.93;;;24.20;35.60;;;;;;6203083;23;20785;-65
2022/09/03 13:07:07;;;;;;;112.67;25.17;;;24.30;35.80;;;;;;6199320;23;20411;-66
2022/09/03 13:09:36;;;;;;;81.53;19.87;;;24.30;35.70;;;;;;6184400;23;21042;-67
2022/09/03 13:12:06;;;;;;;55.93;15.47;;;24.30;35.80;;;;;;6193100;23;20443;-66
2022/09/03 13:14:47;;;;;;;45.73;13.60;;;24.30;35.80;;;;;;6168901;23;20472;-66
2022/09/03 13:17:21;;;;;;;36.03;12.83;;;24.40;35.90;;;;;;6173385;23;20755;-65